Manassas, Georgia
Current Conditions -  °F | °C
As of 1:35 PM on Thursday 27 Nov 2014 (Local Time) from KCWV Reporting Station
Clear Clear  
Wind Chill: 55°   Ceiling: Unl
Heat Index: 55°   Visibility: 10mi
Dew Point:   Wind: 17mph
Humidity: 13%   Direction: 300°WNW
Pressure: 30.19"   Gusts: 29mph
Location:  32.16°N, 82.02°W
Report Text: KCWV 271835Z AUTO 30015G25KT 10SM CLR 13/M15 A3019 RMK AO2
Loading
Personal Weather Stations






























Interactive Weather Map New forecast layout! Learn more

10-Day Weather Forecast

Advertisements
Track Severe Weather on mobile